createdAt,value
2017-11-19T00:00:37.101Z,12.25
2017-11-19T00:03:04.665Z,12.02
2017-11-19T00:05:32.266Z,11.40
2017-11-19T00:07:59.872Z,13.15
2017-11-19T00:10:27.474Z,11.48
2017-11-19T00:12:55.848Z,11.20
2017-11-19T00:15:24.205Z,12.60
2017-11-19T00:17:51.852Z,10.75
2017-11-19T00:20:19.450Z,10.35
2017-11-19T00:22:47.888Z,11.88
2017-11-19T00:25:15.472Z,12.75
2017-11-19T00:27:43.065Z,11.55
2017-11-19T00:30:10.694Z,11.77
2017-11-19T00:32:38.306Z,11.73
2017-11-19T00:35:05.930Z,11.00
2017-11-19T00:37:34.280Z,10.07
2017-11-19T00:40:01.870Z,12.02
2017-11-19T00:42:30.277Z,12.48
2017-11-19T00:44:57.864Z,11.93
2017-11-19T00:47:25.442Z,12.13
2017-11-19T00:49:53.030Z,12.35
2017-11-19T00:52:21.368Z,10.63
2017-11-19T00:54:49.712Z,11.27
2017-11-19T00:57:17.295Z,12.43
2017-11-19T00:59:44.876Z,11.50
2017-11-19T01:02:12.498Z,10.95
2017-11-19T01:04:40.093Z,12.15
2017-11-19T01:07:07.692Z,12.10
2017-11-19T01:09:36.024Z,12.20
2017-11-19T01:12:03.623Z,12.73
2017-11-19T01:14:31.976Z,11.65
2017-11-19T01:16:59.536Z,11.48
2017-11-19T01:19:27.104Z,11.25
2017-11-19T01:21:54.705Z,10.25
2017-11-19T01:24:22.287Z,11.60
2017-11-19T01:26:49.860Z,12.50
2017-11-19T01:29:17.465Z,12.32
2017-11-19T01:31:45.838Z,13.05
2017-11-19T01:34:14.207Z,13.57
2017-11-19T01:36:41.770Z,11.85
2017-11-19T01:39:09.404Z,13.10
2017-11-19T01:41:36.985Z,12.80
2017-11-19T01:44:04.575Z,12.50
2017-11-19T01:46:32.177Z,12.35
2017-11-19T01:48:59.726Z,12.55
2017-11-19T01:51:27.335Z,11.82
2017-11-19T01:53:55.708Z,12.55
2017-11-19T01:56:23.327Z,11.38
2017-11-19T01:58:50.894Z,14.25
2017-11-19T02:01:18.496Z,12.98
2017-11-19T02:03:46.828Z,12.77
2017-11-19T02:06:14.416Z,12.70
2017-11-19T02:08:42.008Z,13.52
2017-11-19T02:11:10.341Z,12.45
2017-11-19T02:13:37.934Z,11.98
2017-11-19T02:16:06.252Z,12.50
2017-11-19T02:18:33.846Z,13.32
2017-11-19T02:21:01.449Z,13.00
2017-11-19T02:23:29.842Z,12.75
2017-11-19T02:25:57.416Z,11.77
2017-11-19T02:28:24.980Z,12.15
2017-11-19T02:30:53.250Z,11.80
2017-11-19T02:33:21.670Z,11.93
2017-11-19T02:35:49.275Z,12.48
2017-11-19T02:38:16.841Z,11.50
2017-11-19T02:40:44.459Z,11.60
2017-11-19T02:43:12.813Z,10.75
2017-11-19T02:45:40.438Z,10.80
2017-11-19T02:48:08.030Z,11.18
2017-11-19T02:50:35.647Z,11.00
2017-11-19T02:53:03.213Z,10.05
2017-11-19T02:55:30.782Z,10.73
2017-11-19T02:57:58.390Z,8.80
2017-11-19T03:00:25.974Z,8.43
2017-11-19T03:02:54.325Z,8.95
2017-11-19T03:05:21.874Z,8.52
2017-11-19T03:07:49.456Z,8.25
2017-11-19T03:10:17.022Z,7.90
2017-11-19T03:12:44.620Z,9.32
2017-11-19T03:15:12.204Z,6.80
2017-11-19T03:17:39.782Z,6.12
2017-11-19T03:20:07.384Z,5.97
2017-11-19T03:22:35.697Z,5.97
2017-11-19T03:25:03.289Z,6.20
2017-11-19T03:27:30.905Z,6.40
2017-11-19T03:29:58.532Z,6.53
2017-11-19T03:32:26.869Z,5.50
2017-11-19T03:34:54.450Z,6.15
2017-11-19T03:37:22.029Z,5.57
2017-11-19T03:39:50.339Z,5.62
2017-11-19T03:42:17.913Z,6.70
2017-11-19T03:44:45.463Z,6.05
2017-11-19T03:47:13.022Z,4.62
2017-11-19T03:49:40.640Z,5.68
2017-11-19T03:52:08.981Z,5.85
2017-11-19T03:54:36.540Z,5.10
2017-11-19T03:57:04.136Z,6.18
2017-11-19T03:59:31.740Z,5.50
2017-11-19T04:01:59.315Z,4.00
2017-11-19T04:04:26.920Z,5.05
2017-11-19T04:06:55.245Z,4.10
2017-11-19T04:09:22.805Z,3.75
2017-11-19T04:11:50.401Z,4.12
2017-11-19T04:14:17.982Z,3.75
2017-11-19T04:16:45.546Z,4.15
2017-11-19T04:19:13.892Z,4.20
2017-11-19T04:21:41.466Z,5.07
2017-11-19T04:24:09.787Z,3.80
2017-11-19T04:26:37.381Z,3.95
2017-11-19T04:29:04.972Z,3.47
2017-11-19T04:31:33.335Z,4.03
2017-11-19T04:34:00.930Z,4.10
2017-11-19T04:36:28.495Z,3.90
2017-11-19T04:38:56.067Z,3.03
2017-11-19T04:41:23.662Z,2.37
2017-11-19T04:43:51.221Z,3.10
2017-11-19T04:46:18.791Z,2.35
2017-11-19T04:48:46.367Z,2.20
2017-11-19T04:51:14.714Z,2.20
2017-11-19T04:53:42.299Z,2.05
2017-11-19T04:56:09.883Z,2.47
2017-11-19T04:58:37.451Z,1.75
2017-11-19T05:01:05.043Z,2.00
2017-11-19T05:03:32.658Z,1.85
2017-11-19T05:06:00.979Z,1.77
2017-11-19T05:08:28.566Z,2.10
2017-11-19T05:10:56.142Z,1.60
2017-11-19T05:13:24.496Z,1.20
2017-11-19T05:15:52.059Z,1.20
2017-11-19T05:18:19.670Z,1.27
2017-11-19T05:20:47.215Z,1.12
2017-11-19T05:23:15.529Z,1.02
2017-11-19T05:25:43.132Z,1.10
2017-11-19T05:28:10.696Z,1.23
2017-11-19T05:30:39.022Z,1.10
2017-11-19T05:33:06.661Z,1.23
2017-11-19T05:35:34.232Z,0.73
2017-11-19T05:38:01.815Z,0.80
2017-11-19T05:40:29.453Z,1.90
2017-11-19T05:42:57.000Z,2.12
2017-11-19T05:45:24.573Z,1.65
2017-11-19T05:47:52.179Z,1.33
2017-11-19T05:50:19.737Z,1.30
2017-11-19T05:52:47.303Z,1.30
2017-11-19T05:55:14.902Z,1.45
2017-11-19T05:57:42.449Z,1.20
2017-11-19T06:00:10.012Z,1.08
2017-11-19T06:02:38.365Z,1.30
2017-11-19T06:05:05.929Z,1.17
2017-11-19T06:07:34.267Z,1.60
2017-11-19T06:10:01.877Z,1.20
2017-11-19T06:12:30.187Z,1.37
2017-11-19T06:14:57.742Z,1.25
2017-11-19T06:17:25.347Z,1.40
2017-11-19T06:19:52.933Z,0.80
2017-11-19T06:22:21.241Z,1.00
2017-11-19T06:24:48.844Z,1.08
2017-11-19T06:27:16.403Z,0.85
2017-11-19T06:29:43.960Z,0.70
2017-11-19T06:32:11.546Z,0.90
2017-11-19T06:34:39.879Z,0.80
2017-11-19T06:37:07.447Z,1.02
2017-11-19T06:39:35.799Z,0.95
2017-11-19T06:42:03.351Z,0.95
2017-11-19T06:44:30.898Z,0.95
2017-11-19T06:46:58.521Z,0.77
2017-11-19T06:49:26.102Z,0.70
2017-11-19T06:51:54.435Z,0.80
2017-11-19T06:54:22.048Z,0.80
2017-11-19T06:56:50.392Z,0.85
2017-11-19T06:59:17.945Z,0.93
2017-11-19T07:01:45.532Z,1.23
2017-11-19T07:04:13.868Z,0.70
2017-11-19T07:06:41.445Z,0.77
2017-11-19T07:09:09.036Z,0.80
2017-11-19T07:11:37.367Z,0.68
2017-11-19T07:14:04.957Z,0.70
2017-11-19T07:16:32.525Z,0.80
2017-11-19T07:19:00.080Z,0.70
2017-11-19T07:21:27.636Z,0.60
2017-11-19T07:23:55.215Z,0.60
2017-11-19T07:26:23.564Z,0.50
2017-11-19T07:28:51.123Z,0.50
2017-11-19T07:31:18.785Z,0.50
2017-11-19T07:33:46.399Z,0.50
2017-11-19T07:36:13.992Z,0.50
2017-11-19T07:38:41.581Z,0.60
2017-11-19T07:41:09.151Z,0.60
2017-11-19T07:43:37.494Z,0.50
2017-11-19T07:46:05.102Z,0.50
2017-11-19T07:48:32.672Z,0.50
2017-11-19T07:51:00.273Z,0.50
2017-11-19T07:53:27.875Z,0.57
2017-11-19T07:55:56.225Z,0.50
2017-11-19T07:58:23.796Z,0.60
2017-11-19T08:00:51.459Z,0.70
2017-11-19T08:03:19.028Z,0.60
2017-11-19T08:05:47.382Z,0.70
2017-11-19T08:08:14.983Z,0.60
2017-11-19T08:10:42.559Z,0.70
2017-11-19T08:13:10.112Z,0.50
2017-11-19T08:15:38.462Z,0.50
2017-11-19T08:18:07.282Z,0.70
2017-11-19T08:20:34.891Z,0.70
2017-11-19T08:23:02.480Z,0.60
2017-11-19T08:25:30.822Z,0.80
2017-11-19T08:27:58.381Z,0.77
2017-11-19T08:30:25.978Z,0.62
2017-11-19T08:32:54.318Z,0.80
2017-11-19T08:35:21.872Z,0.60
2017-11-19T08:37:49.482Z,0.70
2017-11-19T08:40:17.066Z,0.60
2017-11-19T08:42:45.653Z,0.80
2017-11-19T08:45:13.285Z,0.98
2017-11-19T08:47:40.868Z,0.80
2017-11-19T08:50:08.423Z,0.70
2017-11-19T08:52:36.028Z,0.77
2017-11-19T08:55:03.775Z,0.70
2017-11-19T08:57:31.340Z,0.80
2017-11-19T08:59:58.965Z,0.73
2017-11-19T09:02:26.527Z,0.50
2017-11-19T09:04:54.111Z,0.70
2017-11-19T09:07:21.697Z,0.70
2017-11-19T09:09:49.241Z,0.73
2017-11-19T09:12:16.794Z,0.80
2017-11-19T09:14:44.416Z,0.82
2017-11-19T09:17:11.967Z,0.60
2017-11-19T09:19:40.286Z,0.60
2017-11-19T09:22:07.870Z,0.73
2017-11-19T09:24:35.438Z,0.60
2017-11-19T09:27:03.005Z,0.70
2017-11-19T09:29:31.371Z,0.70
2017-11-19T09:31:58.953Z,0.80
2017-11-19T09:34:27.271Z,0.90
2017-11-19T09:36:54.871Z,0.85
2017-11-19T09:39:22.425Z,0.85
2017-11-19T09:41:49.987Z,0.90
2017-11-19T09:44:17.593Z,0.90
2017-11-19T09:46:45.150Z,0.90
2017-11-19T09:49:12.738Z,0.80
2017-11-19T09:51:40.320Z,0.85
2017-11-19T09:54:07.899Z,1.10
2017-11-19T09:56:35.524Z,1.00
2017-11-19T09:59:03.129Z,1.12
2017-11-19T10:01:31.454Z,1.20
2017-11-19T10:03:59.033Z,1.20
2017-11-19T10:06:26.612Z,1.12
2017-11-19T10:08:54.181Z,1.00
2017-11-19T10:11:21.746Z,1.40
2017-11-19T10:13:50.104Z,1.08
2017-11-19T10:16:17.674Z,0.95
2017-11-19T10:18:46.054Z,1.05
2017-11-19T10:21:13.658Z,1.05
2017-11-19T10:23:41.224Z,1.00
2017-11-19T10:26:08.776Z,1.25
2017-11-19T10:28:36.374Z,1.30
2017-11-19T10:31:03.959Z,1.42
2017-11-19T10:33:32.285Z,1.85
2017-11-19T10:35:59.885Z,1.40
2017-11-19T10:38:27.452Z,1.50
2017-11-19T10:40:55.789Z,1.70
2017-11-19T10:43:23.380Z,1.30
2017-11-19T10:45:50.950Z,1.35
2017-11-19T10:48:18.521Z,1.08
2017-11-19T10:50:46.877Z,1.45
2017-11-19T10:53:14.426Z,1.58
2017-11-19T10:55:42.001Z,1.40
2017-11-19T10:58:09.601Z,1.83
2017-11-19T11:00:37.174Z,1.30
2017-11-19T11:03:04.751Z,1.40
2017-11-19T11:05:32.361Z,1.02
2017-11-19T11:08:00.673Z,1.00
2017-11-19T11:10:28.221Z,1.20
2017-11-19T11:12:55.854Z,1.35
2017-11-19T11:15:24.185Z,1.30
2017-11-19T11:17:51.747Z,1.00
2017-11-19T11:20:19.378Z,1.30
2017-11-19T11:22:46.966Z,1.48
2017-11-19T11:25:14.528Z,1.27
2017-11-19T11:27:42.122Z,1.65
2017-11-19T11:30:09.708Z,1.83
2017-11-19T11:32:37.354Z,1.60
2017-11-19T11:35:05.720Z,1.95
2017-11-19T11:37:33.270Z,1.60
2017-11-19T11:40:00.813Z,1.65
2017-11-19T11:42:28.403Z,2.20
2017-11-19T11:44:55.989Z,2.10
2017-11-19T11:47:23.634Z,2.45
2017-11-19T11:49:51.292Z,2.00
2017-11-19T11:52:19.646Z,1.95
2017-11-19T11:54:47.217Z,2.50
2017-11-19T11:57:14.839Z,2.33
2017-11-19T11:59:42.414Z,2.30
2017-11-19T12:02:10.027Z,2.67
2017-11-19T12:04:37.628Z,2.90
2017-11-19T12:07:05.199Z,2.60
2017-11-19T12:09:32.774Z,3.00
2017-11-19T12:12:00.436Z,3.30
2017-11-19T12:14:27.997Z,3.08
2017-11-19T12:16:55.563Z,2.92
2017-11-19T12:19:23.213Z,2.85
2017-11-19T12:21:50.991Z,2.65
2017-11-19T12:24:18.605Z,2.40
2017-11-19T12:26:46.279Z,2.70
2017-11-19T12:29:14.646Z,2.67
2017-11-19T12:31:42.226Z,3.50
2017-11-19T12:34:09.864Z,3.10
2017-11-19T12:36:37.485Z,3.15
2017-11-19T12:39:05.839Z,3.22
2017-11-19T12:41:33.449Z,3.37
2017-11-19T12:44:01.018Z,2.78
2017-11-19T12:46:28.618Z,3.67
2017-11-19T12:48:56.244Z,2.25
2017-11-19T12:51:23.836Z,3.45
2017-11-19T12:53:51.411Z,3.20
2017-11-19T12:56:18.998Z,3.40
2017-11-19T12:58:47.328Z,2.55
2017-11-19T13:01:14.901Z,2.85
2017-11-19T13:03:42.511Z,2.95
2017-11-19T13:06:10.067Z,3.25
2017-11-19T13:08:37.650Z,2.45
2017-11-19T13:11:05.242Z,2.40
2017-11-19T13:13:32.806Z,2.45
2017-11-19T13:16:00.396Z,3.30
2017-11-19T13:18:28.002Z,2.72
2017-11-19T13:20:55.581Z,2.35
2017-11-19T13:23:23.177Z,2.60
2017-11-19T13:25:50.809Z,2.75
2017-11-19T13:28:18.389Z,2.75
2017-11-19T13:30:48.282Z,2.80
2017-11-19T13:33:15.978Z,2.97
2017-11-19T13:35:43.560Z,3.00
2017-11-19T13:38:11.125Z,3.05
2017-11-19T13:40:38.750Z,3.60
2017-11-19T13:43:07.072Z,2.97
2017-11-19T13:45:34.633Z,2.40
2017-11-19T13:48:02.223Z,1.83
2017-11-19T13:50:29.788Z,2.78
2017-11-19T13:52:57.371Z,2.83
2017-11-19T13:55:26.097Z,2.50
2017-11-19T13:57:53.725Z,1.98
2017-11-19T14:00:21.369Z,1.80
2017-11-19T14:02:49.750Z,1.90
2017-11-19T14:05:17.340Z,2.22
2017-11-19T14:07:44.915Z,2.42
2017-11-19T14:10:12.502Z,1.80
2017-11-19T14:12:40.064Z,2.55
2017-11-19T14:15:08.983Z,2.22
2017-11-19T14:17:36.616Z,2.33
2017-11-19T14:20:04.180Z,2.42
2017-11-19T14:22:31.747Z,2.10
2017-11-19T14:24:59.357Z,2.50
2017-11-19T14:27:26.953Z,3.53
2017-11-19T14:29:54.611Z,1.83
2017-11-19T14:32:24.077Z,2.00
2017-11-19T14:34:51.654Z,1.85
2017-11-19T14:37:19.213Z,1.60
2017-11-19T14:39:47.189Z,2.20
2017-11-19T14:42:14.754Z,1.55
2017-11-19T14:44:42.345Z,1.50
2017-11-19T14:47:09.964Z,2.10
2017-11-19T14:49:37.539Z,2.00
2017-11-19T14:52:05.993Z,2.45
2017-11-19T14:54:34.501Z,2.22
2017-11-19T14:57:02.867Z,1.90
2017-11-19T14:59:30.439Z,1.92
2017-11-19T15:01:58.131Z,2.70
2017-11-19T15:04:26.461Z,2.60
2017-11-19T15:06:54.003Z,2.40
2017-11-19T15:09:21.599Z,2.67
2017-11-19T15:11:49.148Z,2.83
2017-11-19T15:14:16.711Z,1.50
2017-11-19T15:16:44.318Z,2.22
2017-11-19T15:19:13.777Z,2.62
2017-11-19T15:21:41.320Z,2.25
2017-11-19T15:24:08.934Z,2.05
2017-11-19T15:26:36.492Z,2.28
2017-11-19T15:29:04.834Z,2.70
2017-11-19T15:31:32.418Z,2.15
2017-11-19T15:33:59.993Z,2.50
2017-11-19T15:36:28.357Z,2.03
2017-11-19T15:38:55.964Z,2.15
2017-11-19T15:41:23.560Z,2.72
2017-11-19T15:43:51.144Z,2.47
2017-11-19T15:46:18.748Z,2.80
2017-11-19T15:48:46.334Z,2.45
2017-11-19T15:51:13.887Z,2.78
2017-11-19T15:53:41.476Z,2.22
2017-11-19T15:56:09.026Z,2.55
2017-11-19T15:58:37.484Z,2.78
2017-11-19T16:01:05.076Z,2.37
2017-11-19T16:03:32.633Z,3.20
2017-11-19T16:06:00.205Z,4.43
2017-11-19T16:08:28.568Z,2.97
2017-11-19T16:10:56.114Z,3.58
2017-11-19T16:13:23.661Z,2.78
2017-11-19T16:15:51.267Z,4.10
2017-11-19T16:18:19.615Z,3.80
2017-11-19T16:20:47.163Z,2.45
2017-11-19T16:23:14.765Z,3.72
2017-11-19T16:25:43.074Z,2.85
2017-11-19T16:28:10.631Z,3.53
2017-11-19T16:30:38.238Z,3.00
2017-11-19T16:33:05.791Z,3.45
2017-11-19T16:35:33.368Z,3.85
2017-11-19T16:38:01.000Z,2.83
2017-11-19T16:40:28.572Z,4.03
2017-11-19T16:42:56.148Z,3.00
2017-11-19T16:45:23.737Z,2.70
2017-11-19T16:47:51.296Z,3.47
2017-11-19T16:50:19.619Z,4.15
2017-11-19T16:52:47.209Z,3.12
2017-11-19T16:55:14.773Z,4.20
2017-11-19T16:57:43.125Z,3.03
2017-11-19T17:00:11.513Z,5.60
2017-11-19T17:02:39.109Z,4.62
2017-11-19T17:05:07.453Z,4.28
2017-11-19T17:07:35.061Z,3.72
2017-11-19T17:10:02.659Z,3.58
2017-11-19T17:12:30.236Z,2.80
2017-11-19T17:14:57.848Z,3.30
2017-11-19T17:17:25.433Z,2.72
2017-11-19T17:22:32.748Z,3.10
2017-11-19T17:25:01.693Z,2.80
2017-11-19T17:27:30.413Z,4.32
2017-11-19T17:29:58.501Z,3.00
2017-11-19T17:32:27.797Z,4.85
2017-11-19T17:35:00.921Z,4.05
2017-11-19T17:37:29.827Z,7.12
2017-11-19T17:39:58.399Z,3.45
2017-11-19T17:42:26.316Z,4.65
2017-11-19T17:44:55.366Z,2.17
2017-11-19T17:47:24.347Z,5.82
2017-11-19T17:49:53.139Z,3.17
2017-11-19T17:52:20.851Z,2.28
2017-11-19T17:54:48.510Z,2.87
2017-11-19T17:57:16.254Z,3.30
2017-11-19T17:59:44.050Z,2.15
2017-11-19T18:02:13.061Z,3.50
2017-11-19T18:04:40.704Z,2.40
2017-11-19T18:07:08.788Z,3.10
2017-11-19T18:09:36.878Z,2.85
2017-11-19T18:12:04.505Z,2.72
2017-11-19T18:14:32.472Z,2.83
2017-11-19T18:17:01.486Z,3.12
2017-11-19T18:19:29.100Z,3.35
2017-11-19T18:21:56.789Z,2.10
2017-11-19T18:24:25.426Z,2.55
2017-11-19T18:26:53.981Z,2.20
2017-11-19T18:29:21.567Z,1.80
2017-11-19T18:31:49.137Z,2.40
2017-11-19T18:34:17.482Z,2.70
2017-11-19T18:36:45.072Z,3.30
2017-11-19T18:39:13.411Z,3.50
2017-11-19T18:41:40.985Z,3.10
2017-11-19T18:44:08.580Z,2.95
2017-11-19T18:46:36.156Z,5.12
2017-11-19T18:49:03.713Z,3.08
2017-11-19T18:51:31.312Z,2.15
2017-11-19T18:53:58.877Z,2.08
2017-11-19T18:56:26.439Z,2.30
2017-11-19T18:58:54.137Z,2.37
2017-11-19T19:01:22.464Z,1.73
2017-11-19T19:03:50.035Z,1.95
2017-11-19T19:06:17.652Z,1.80
2017-11-19T19:08:45.228Z,2.20
2017-11-19T19:11:12.808Z,1.95
2017-11-19T19:13:40.414Z,2.10
2017-11-19T19:16:08.062Z,1.60
2017-11-19T19:18:36.382Z,1.83
2017-11-19T19:21:03.974Z,1.80
2017-11-19T19:23:31.974Z,2.67
2017-11-19T19:26:01.499Z,2.25
2017-11-19T19:28:30.653Z,2.22
2017-11-19T19:30:58.198Z,2.22
2017-11-19T19:33:25.768Z,2.30
2017-11-19T19:35:53.373Z,2.20
2017-11-19T19:38:20.950Z,2.40
2017-11-19T19:40:48.501Z,2.03
2017-11-19T19:43:16.100Z,2.20
2017-11-19T19:45:43.653Z,1.90
2017-11-19T19:48:11.215Z,1.75
2017-11-19T19:50:38.796Z,2.03
2017-11-19T19:53:06.337Z,2.37
2017-11-19T19:55:33.884Z,2.10
2017-11-19T19:58:01.478Z,3.50
2017-11-19T20:00:29.785Z,2.90
2017-11-19T20:02:58.194Z,2.90
2017-11-19T20:05:25.808Z,2.78
2017-11-19T20:07:54.131Z,4.28
2017-11-19T20:10:21.704Z,2.78
2017-11-19T20:12:49.311Z,2.10
2017-11-19T20:15:17.641Z,2.62
2017-11-19T20:17:46.421Z,2.47
2017-11-19T20:20:14.121Z,2.28
2017-11-19T20:22:41.678Z,3.67
2017-11-19T20:25:09.247Z,2.47
2017-11-19T20:27:37.612Z,2.78
2017-11-19T20:30:05.192Z,2.60
2017-11-19T20:32:33.519Z,3.37
2017-11-19T20:35:01.127Z,2.97
2017-11-19T20:37:29.441Z,3.08
2017-11-19T20:39:57.013Z,2.97
2017-11-19T20:42:24.611Z,3.10
2017-11-19T20:44:52.235Z,2.85
2017-11-19T20:47:19.795Z,3.17
2017-11-19T20:49:47.380Z,3.25
2017-11-19T20:52:14.952Z,2.42
2017-11-19T20:54:42.500Z,3.03
2017-11-19T20:57:10.099Z,3.30
2017-11-19T20:59:38.419Z,2.75
2017-11-19T21:02:05.994Z,2.80
2017-11-19T21:04:33.600Z,3.10
2017-11-19T21:07:01.150Z,2.30
2017-11-19T21:09:29.473Z,2.72
2017-11-19T21:11:57.092Z,2.45
2017-11-19T21:14:24.664Z,3.08
2017-11-19T21:16:52.242Z,2.70
2017-11-19T21:19:19.863Z,3.50
2017-11-19T21:21:48.211Z,3.35
2017-11-19T21:24:15.789Z,3.22
2017-11-19T21:26:43.393Z,2.72
2017-11-19T21:29:10.968Z,4.15
2017-11-19T21:31:38.530Z,3.40
2017-11-19T21:34:06.101Z,3.83
2017-11-19T21:36:33.655Z,3.37
2017-11-19T21:39:01.992Z,3.55
2017-11-19T21:41:29.598Z,3.53
2017-11-19T21:43:57.163Z,2.97
2017-11-19T21:46:24.742Z,3.20
2017-11-19T21:48:52.346Z,3.45
2017-11-19T21:51:19.920Z,3.55
2017-11-19T21:53:47.494Z,3.10
2017-11-19T21:56:15.095Z,3.22
2017-11-19T21:58:43.448Z,3.00
2017-11-19T22:01:11.021Z,3.30
2017-11-19T22:03:38.618Z,3.30
2017-11-19T22:06:06.225Z,3.20
2017-11-19T22:08:34.584Z,3.05
2017-11-19T22:11:02.200Z,3.30
2017-11-19T22:13:30.538Z,2.95
2017-11-19T22:15:58.125Z,3.47
2017-11-19T22:18:26.482Z,2.78
2017-11-19T22:20:54.038Z,2.90
2017-11-19T22:23:21.613Z,3.72
2017-11-19T22:25:49.236Z,2.75
2017-11-19T22:28:16.797Z,2.75
2017-11-19T22:30:44.391Z,2.70
2017-11-19T22:33:11.983Z,3.50
2017-11-19T22:35:40.303Z,2.62
2017-11-19T22:38:07.858Z,3.28
2017-11-19T22:40:35.451Z,3.60
2017-11-19T22:43:03.077Z,3.12
2017-11-19T22:45:30.646Z,3.72
2017-11-19T22:47:58.267Z,2.40
2017-11-19T22:50:25.820Z,4.18
2017-11-19T22:52:54.152Z,3.47
2017-11-19T22:55:21.749Z,3.47
2017-11-19T22:57:50.107Z,2.70
2017-11-19T23:00:17.668Z,2.95
2017-11-19T23:02:45.256Z,2.95
2017-11-19T23:05:13.589Z,4.45
2017-11-19T23:07:41.148Z,3.40
2017-11-19T23:10:08.738Z,4.25
2017-11-19T23:12:37.087Z,4.10
2017-11-19T23:15:04.652Z,3.30
2017-11-19T23:17:32.242Z,3.42
2017-11-19T23:20:00.553Z,3.20
2017-11-19T23:22:28.115Z,3.00
2017-11-19T23:24:55.693Z,3.10
2017-11-19T23:27:23.271Z,3.67
2017-11-19T23:29:50.817Z,3.65
2017-11-19T23:32:18.429Z,2.80
2017-11-19T23:34:46.765Z,3.65
2017-11-19T23:37:14.336Z,3.17
2017-11-19T23:39:41.931Z,2.62
2017-11-19T23:42:09.508Z,3.10
2017-11-19T23:44:37.082Z,2.35
2017-11-19T23:47:04.666Z,2.50
2017-11-19T23:49:32.261Z,2.75
2017-11-19T23:51:59.842Z,2.78
2017-11-19T23:54:27.431Z,2.25
2017-11-19T23:56:56.996Z,2.67
2017-11-19T23:59:26.506Z,2.97
